createdAt,value
2023-03-17T00:00:53.436Z,78.83
2023-03-17T00:03:55.285Z,79.24
2023-03-17T00:06:58.017Z,79.27
2023-03-17T00:09:59.619Z,79.37
2023-03-17T00:13:01.546Z,79.01
2023-03-17T00:16:07.528Z,79.53
2023-03-17T00:19:41.321Z,79.45
2023-03-17T00:22:43.281Z,78.98
2023-03-17T00:25:45.456Z,79.29
2023-03-17T00:28:49.087Z,79.52
2023-03-17T00:31:51.186Z,79.61
2023-03-17T00:35:01.024Z,79.06
2023-03-17T00:38:03.874Z,79.87
2023-03-17T00:41:14.780Z,79.92
2023-03-17T00:44:21.821Z,79.73
2023-03-17T00:47:23.496Z,80.22
2023-03-17T00:50:28.662Z,80.68
2023-03-17T00:53:30.444Z,79.80
2023-03-17T00:56:34.077Z,80.09
2023-03-17T00:59:40.896Z,80.34
2023-03-17T01:02:46.645Z,80.54
2023-03-17T01:05:49.056Z,80.60
2023-03-17T01:08:50.664Z,81.32
2023-03-17T01:11:53.056Z,81.86
2023-03-17T01:14:54.868Z,81.77
2023-03-17T01:17:57.244Z,81.54
2023-03-17T01:20:59.090Z,81.40
2023-03-17T01:24:00.727Z,81.60
2023-03-17T01:27:02.681Z,81.37
2023-03-17T01:30:06.374Z,81.64
2023-03-17T01:33:09.798Z,82.05
2023-03-17T01:36:11.778Z,82.59
2023-03-17T01:39:14.433Z,82.50
2023-03-17T01:42:17.594Z,82.50
2023-03-17T01:45:59.609Z,82.81
2023-03-17T01:49:16.135Z,82.84
2023-03-17T01:52:21.752Z,83.60
2023-03-17T01:55:24.979Z,83.62
2023-03-17T01:58:26.927Z,83.84
2023-03-17T02:01:37.765Z,83.45
2023-03-17T02:04:40.440Z,84.10
2023-03-17T02:07:42.834Z,84.59
2023-03-17T02:10:46.330Z,84.89
2023-03-17T02:13:48.556Z,84.58
2023-03-17T02:16:50.414Z,84.39
2023-03-17T02:19:52.708Z,84.90
2023-03-17T02:22:57.337Z,85.01
2023-03-17T02:25:59.397Z,85.39
2023-03-17T02:29:01.362Z,84.75
2023-03-17T02:32:05.783Z,85.06
2023-03-17T02:35:09.600Z,84.94
2023-03-17T02:38:12.087Z,85.23
2023-03-17T02:41:14.104Z,85.04
2023-03-17T02:44:17.141Z,85.13
2023-03-17T02:47:19.205Z,85.87
2023-03-17T02:50:23.583Z,85.53
2023-03-17T02:53:26.150Z,86.00
2023-03-17T02:56:28.070Z,85.63
2023-03-17T02:59:29.807Z,85.84
2023-03-17T03:02:31.404Z,85.67
2023-03-17T03:05:33.052Z,85.92
2023-03-17T03:08:34.660Z,85.60
2023-03-17T03:11:36.196Z,85.70
2023-03-17T03:14:37.750Z,86.48
2023-03-17T03:17:39.339Z,86.19
2023-03-17T03:20:44.050Z,86.38
2023-03-17T03:23:45.983Z,86.57
2023-03-17T03:26:47.565Z,86.41
2023-03-17T03:29:49.145Z,85.81
2023-03-17T03:32:51.150Z,86.47
2023-03-17T03:35:53.280Z,86.46
2023-03-17T03:38:55.395Z,86.41
2023-03-17T03:41:58.310Z,86.40
2023-03-17T03:44:59.942Z,86.02
2023-03-17T03:48:02.014Z,86.15
2023-03-17T03:51:04.756Z,85.87
2023-03-17T03:54:06.364Z,85.56
2023-03-17T03:57:09.140Z,85.93
2023-03-17T04:00:14.185Z,85.62
2023-03-17T04:03:16.133Z,85.50
2023-03-17T04:06:17.854Z,86.08
2023-03-17T04:09:19.915Z,85.40
2023-03-17T04:12:21.981Z,85.96
2023-03-17T04:15:24.316Z,85.51
2023-03-17T04:18:26.624Z,85.42
2023-03-17T04:21:28.180Z,85.77
2023-03-17T04:24:30.237Z,85.79
2023-03-17T04:27:32.280Z,86.04
2023-03-17T04:30:34.609Z,85.55
2023-03-17T04:33:36.291Z,85.23
2023-03-17T04:36:38.934Z,85.89
2023-03-17T04:39:42.135Z,86.00
2023-03-17T04:42:44.324Z,85.40
2023-03-17T04:45:46.581Z,85.79
2023-03-17T04:48:48.217Z,85.33
2023-03-17T04:51:50.792Z,85.89
2023-03-17T04:54:55.581Z,85.34
2023-03-17T04:57:57.124Z,85.32
2023-03-17T05:00:59.406Z,86.22
2023-03-17T05:04:01.321Z,85.61
2023-03-17T05:07:02.988Z,86.28
2023-03-17T05:10:06.526Z,86.30
2023-03-17T05:13:08.234Z,86.01
2023-03-17T05:16:10.651Z,85.83
2023-03-17T05:19:12.285Z,85.66
2023-03-17T05:22:19.289Z,85.73
2023-03-17T05:25:22.187Z,85.79
2023-03-17T05:28:25.651Z,85.53
2023-03-17T05:31:27.732Z,86.26
2023-03-17T05:34:29.888Z,85.63
2023-03-17T05:37:33.635Z,86.06
2023-03-17T05:40:37.437Z,86.03
2023-03-17T05:43:40.031Z,86.17
2023-03-17T05:46:44.218Z,85.92
2023-03-17T05:49:48.941Z,85.56
2023-03-17T05:52:52.233Z,86.46
2023-03-17T05:55:54.417Z,86.47
2023-03-17T05:58:57.118Z,86.62
2023-03-17T06:01:58.730Z,86.00
2023-03-17T06:05:00.369Z,86.34
2023-03-17T06:08:03.291Z,86.35
2023-03-17T06:11:05.151Z,85.70
2023-03-17T06:14:07.320Z,86.54
2023-03-17T06:17:08.984Z,85.85
2023-03-17T06:20:13.240Z,86.20
2023-03-17T06:23:16.090Z,85.92
2023-03-17T06:26:18.473Z,85.76
2023-03-17T06:29:20.123Z,85.63
2023-03-17T06:32:22.059Z,86.03
2023-03-17T06:35:28.016Z,85.15
2023-03-17T06:38:30.254Z,85.94
2023-03-17T06:41:31.901Z,85.60
2023-03-17T06:44:35.040Z,85.36
2023-03-17T06:47:37.394Z,84.47
2023-03-17T06:50:39.581Z,84.81
2023-03-17T06:53:41.761Z,83.78
2023-03-17T06:56:44.944Z,84.18
2023-03-17T06:59:47.160Z,83.55
2023-03-17T07:02:50.302Z,83.62
2023-03-17T07:05:53.672Z,83.15
2023-03-17T07:08:55.344Z,83.17
2023-03-17T07:11:56.888Z,83.76
2023-03-17T07:14:59.647Z,83.65
2023-03-17T07:18:03.043Z,83.01
2023-03-17T07:21:05.428Z,83.06
2023-03-17T07:24:07.624Z,83.04
2023-03-17T07:27:11.051Z,83.00
2023-03-17T07:30:15.012Z,82.76
2023-03-17T07:33:29.056Z,82.58
2023-03-17T07:36:34.527Z,82.10
2023-03-17T07:39:39.562Z,81.76
2023-03-17T07:42:44.631Z,81.85
2023-03-17T07:45:49.007Z,81.82
2023-03-17T07:48:54.377Z,81.12
2023-03-17T07:51:57.788Z,81.03
2023-03-17T07:55:01.502Z,81.64
2023-03-17T07:58:06.667Z,81.49
2023-03-17T08:01:09.884Z,81.05
2023-03-17T08:04:13.330Z,80.50
2023-03-17T08:07:15.654Z,80.72
2023-03-17T08:10:22.567Z,80.47
2023-03-17T08:13:26.369Z,80.62
2023-03-17T08:16:29.728Z,80.94
2023-03-17T08:19:35.652Z,80.07
2023-03-17T08:22:41.978Z,80.35
2023-03-17T08:25:48.173Z,79.83
2023-03-17T08:28:53.208Z,79.91
2023-03-17T08:31:57.692Z,79.29
2023-03-17T08:35:01.906Z,79.10
2023-03-17T08:38:06.874Z,78.43
2023-03-17T08:41:13.736Z,78.83
2023-03-17T08:44:17.329Z,78.81
2023-03-17T08:47:19.959Z,78.09
2023-03-17T08:50:25.513Z,77.26
2023-03-17T08:53:27.942Z,77.48
2023-03-17T08:56:30.155Z,77.01
2023-03-17T08:59:35.197Z,76.92
2023-03-17T09:02:51.992Z,75.91
2023-03-17T09:05:56.373Z,75.34
2023-03-17T09:09:01.104Z,75.42
2023-03-17T09:12:14.184Z,75.10
2023-03-17T09:15:16.677Z,75.20
2023-03-17T09:18:22.188Z,74.59
2023-03-17T09:21:27.760Z,74.60
2023-03-17T09:24:29.540Z,74.12
2023-03-17T09:27:31.893Z,72.86
2023-03-17T09:30:37.753Z,71.88
2023-03-17T09:33:41.159Z,72.39
2023-03-17T09:36:45.448Z,71.43
2023-03-17T09:39:50.033Z,71.82
2023-03-17T09:43:11.977Z,70.64
2023-03-17T09:46:41.360Z,71.44
2023-03-17T09:50:01.671Z,70.72
2023-03-17T09:53:05.807Z,70.48
2023-03-17T09:56:19.383Z,69.45
2023-03-17T09:59:34.330Z,68.62
2023-03-17T10:02:42.035Z,69.05
2023-03-17T10:05:45.253Z,68.71
2023-03-17T10:09:03.635Z,69.04
2023-03-17T10:12:40.675Z,68.04
2023-03-17T10:16:09.237Z,67.59
2023-03-17T10:19:27.759Z,66.35
2023-03-17T10:22:39.037Z,66.58
2023-03-17T10:25:43.394Z,66.42
2023-03-17T10:28:55.059Z,65.59
2023-03-17T10:31:59.322Z,65.58
2023-03-17T10:35:01.459Z,66.00
2023-03-17T10:38:20.283Z,66.03
2023-03-17T10:41:24.980Z,64.69
2023-03-17T10:44:44.719Z,64.19
2023-03-17T10:47:48.963Z,64.00
2023-03-17T10:50:52.895Z,63.67
2023-03-17T10:54:22.303Z,63.23
2023-03-17T10:57:24.056Z,63.70
2023-03-17T11:00:30.778Z,63.41
2023-03-17T11:03:40.413Z,63.59
2023-03-17T11:06:46.821Z,63.62
2023-03-17T11:09:55.731Z,62.09
2023-03-17T11:13:03.564Z,61.28
2023-03-17T11:16:13.259Z,60.77
2023-03-17T11:19:18.506Z,60.41
2023-03-17T11:22:35.240Z,58.31
2023-03-17T11:25:45.244Z,57.83
2023-03-17T11:28:57.344Z,57.80
2023-03-17T11:32:21.658Z,56.08
2023-03-17T11:36:09.623Z,55.09
2023-03-17T11:39:17.745Z,54.39
2023-03-17T11:42:43.702Z,55.15
2023-03-17T11:46:07.704Z,55.78
2023-03-17T11:49:25.259Z,55.99
2023-03-17T11:52:53.256Z,55.54
2023-03-17T11:56:34.805Z,54.14
2023-03-17T11:59:47.324Z,54.38
2023-03-17T12:03:10.718Z,53.46
2023-03-17T12:06:34.469Z,53.97
2023-03-17T12:09:47.487Z,53.46
2023-03-17T12:12:59.573Z,54.06
2023-03-17T12:16:09.515Z,53.57
2023-03-17T12:19:16.246Z,52.52
2023-03-17T12:22:36.708Z,51.33
2023-03-17T12:25:55.253Z,51.47
2023-03-17T12:29:16.532Z,51.36
2023-03-17T12:33:06.323Z,51.16
2023-03-17T12:36:15.186Z,51.30
2023-03-17T12:39:27.625Z,50.55
2023-03-17T12:43:07.857Z,50.78
2023-03-17T12:46:37.216Z,50.12
2023-03-17T12:50:05.979Z,50.31
2023-03-17T12:53:32.908Z,49.88
2023-03-17T12:56:36.573Z,49.62
2023-03-17T12:59:47.951Z,49.36
2023-03-17T13:02:52.295Z,49.32
2023-03-17T13:06:03.014Z,48.95
2023-03-17T13:09:32.758Z,49.06
2023-03-17T13:12:45.549Z,48.92
2023-03-17T13:15:53.387Z,49.61
2023-03-17T13:19:33.717Z,47.69
2023-03-17T13:22:47.593Z,48.35
2023-03-17T13:25:57.365Z,48.10
2023-03-17T13:29:22.665Z,46.56
2023-03-17T13:32:25.008Z,47.91
2023-03-17T13:36:09.458Z,47.87
2023-03-17T13:39:34.601Z,47.92
2023-03-17T13:42:50.412Z,47.40
2023-03-17T13:45:55.292Z,48.25
2023-03-17T13:49:17.354Z,47.86
2023-03-17T13:52:33.987Z,47.15
2023-03-17T13:56:04.243Z,47.36
2023-03-17T13:59:13.788Z,47.64
2023-03-17T14:02:22.846Z,47.14
2023-03-17T14:05:28.361Z,48.01
2023-03-17T14:08:34.996Z,47.33
2023-03-17T14:11:39.858Z,46.80
2023-03-17T14:14:45.227Z,47.15
2023-03-17T14:17:54.025Z,46.90
2023-03-17T14:20:57.995Z,47.38
2023-03-17T14:24:01.596Z,47.25
2023-03-17T14:27:10.667Z,47.41
2023-03-17T14:30:19.681Z,46.85
2023-03-17T14:33:27.430Z,47.30
2023-03-17T14:36:33.658Z,47.76
2023-03-17T14:39:47.287Z,46.63
2023-03-17T14:42:51.617Z,46.72
2023-03-17T14:46:03.354Z,46.13
2023-03-17T14:49:18.424Z,46.63
2023-03-17T14:52:33.872Z,45.91
2023-03-17T14:55:43.487Z,45.82
2023-03-17T14:58:51.020Z,45.43
2023-03-17T15:02:04.108Z,44.17
2023-03-17T15:05:36.913Z,43.63
2023-03-17T15:08:42.714Z,43.67
2023-03-17T15:11:45.448Z,42.40
2023-03-17T15:14:52.454Z,42.09
2023-03-17T15:17:59.352Z,41.69
2023-03-17T15:21:02.661Z,41.50
2023-03-17T15:24:21.698Z,41.05
2023-03-17T15:27:23.811Z,40.77
2023-03-17T15:30:44.375Z,40.17
2023-03-17T15:33:49.842Z,39.47
2023-03-17T15:36:52.007Z,40.29
2023-03-17T15:39:57.668Z,40.32
2023-03-17T15:43:05.135Z,40.36
2023-03-17T15:46:19.726Z,40.02
2023-03-17T15:49:26.918Z,39.99
2023-03-17T15:52:29.326Z,40.15
2023-03-17T15:55:34.284Z,40.91
2023-03-17T15:58:39.043Z,41.28
2023-03-17T16:01:44.098Z,41.89
2023-03-17T16:04:54.151Z,42.38
2023-03-17T16:07:59.189Z,42.84
2023-03-17T16:11:04.390Z,43.93
2023-03-17T16:14:07.632Z,44.01
2023-03-17T16:17:30.983Z,44.59
2023-03-17T16:20:44.928Z,45.55
2023-03-17T16:23:53.653Z,46.50
2023-03-17T16:26:55.598Z,46.44
2023-03-17T16:30:01.485Z,47.77
2023-03-17T16:33:20.667Z,48.76
2023-03-17T16:36:27.811Z,49.17
2023-03-17T16:39:32.390Z,50.08
2023-03-17T16:42:44.450Z,50.57
2023-03-17T16:45:49.697Z,51.23
2023-03-17T16:48:51.800Z,51.61
2023-03-17T16:51:55.475Z,50.73
2023-03-17T16:54:59.681Z,52.08
2023-03-17T16:58:17.625Z,52.73
2023-03-17T17:01:25.377Z,53.03
2023-03-17T17:04:31.417Z,52.85
2023-03-17T17:07:34.608Z,53.84
2023-03-17T17:10:40.610Z,54.25
2023-03-17T17:13:46.634Z,54.95
2023-03-17T17:16:48.369Z,54.76
2023-03-17T17:19:51.260Z,56.48
2023-03-17T17:22:56.295Z,57.15
2023-03-17T17:26:03.104Z,57.75
2023-03-17T17:29:06.717Z,58.36
2023-03-17T17:32:11.145Z,59.41
2023-03-17T17:35:16.044Z,60.64
2023-03-17T17:38:28.875Z,60.69
2023-03-17T17:41:35.495Z,61.26
2023-03-17T17:44:40.620Z,62.30
2023-03-17T17:47:42.885Z,61.31
2023-03-17T17:50:52.846Z,61.94
2023-03-17T17:53:58.241Z,62.81
2023-03-17T17:57:12.225Z,63.48
2023-03-17T18:00:17.973Z,64.68
2023-03-17T18:03:26.673Z,64.69
2023-03-17T18:06:30.178Z,64.73
2023-03-17T18:09:32.221Z,65.64
2023-03-17T18:12:38.214Z,66.21
2023-03-17T18:15:49.129Z,66.40
2023-03-17T18:18:54.464Z,67.10
2023-03-17T18:21:58.152Z,67.43
2023-03-17T18:25:02.356Z,67.92
2023-03-17T18:28:08.330Z,68.53
2023-03-17T18:31:14.732Z,69.01
2023-03-17T18:34:21.755Z,68.62
2023-03-17T18:37:26.604Z,69.02
2023-03-17T18:40:30.925Z,70.07
2023-03-17T18:43:34.693Z,70.49
2023-03-17T18:46:38.781Z,71.18
2023-03-17T18:49:47.111Z,71.13
2023-03-17T18:52:49.870Z,71.73
2023-03-17T18:55:51.645Z,71.60
2023-03-17T18:58:55.228Z,72.01
2023-03-17T19:01:57.625Z,72.83
2023-03-17T19:05:02.451Z,73.02
2023-03-17T19:08:07.102Z,73.22
2023-03-17T19:11:11.913Z,73.55
2023-03-17T19:14:15.831Z,74.11
2023-03-17T19:17:19.724Z,74.17
2023-03-17T19:20:24.027Z,74.56
2023-03-17T19:23:26.858Z,74.83
2023-03-17T19:26:41.928Z,74.93
2023-03-17T19:29:46.585Z,75.53
2023-03-17T19:32:51.942Z,75.69
2023-03-17T19:36:00.538Z,75.96
2023-03-17T19:39:04.446Z,76.18
2023-03-17T19:42:07.935Z,76.27
2023-03-17T19:45:12.039Z,76.83
2023-03-17T19:48:13.715Z,77.15
2023-03-17T19:51:17.040Z,76.91
2023-03-17T19:54:23.495Z,77.61
2023-03-17T19:57:28.731Z,77.62
2023-03-17T20:00:36.404Z,78.15
2023-03-17T20:03:45.661Z,78.52
2023-03-17T20:06:48.124Z,78.74
2023-03-17T20:10:01.786Z,78.99
2023-03-17T20:13:04.976Z,79.33
2023-03-17T20:16:10.773Z,79.55
2023-03-17T20:19:13.683Z,79.84
2023-03-17T20:22:18.117Z,80.25
2023-03-17T20:25:19.688Z,80.17
2023-03-17T20:28:23.795Z,80.14
2023-03-17T20:31:29.698Z,80.62
2023-03-17T20:34:34.730Z,80.64
2023-03-17T20:37:37.739Z,80.58
2023-03-17T20:40:42.772Z,80.62
2023-03-17T20:43:56.520Z,81.45
2023-03-17T20:47:00.945Z,81.16
2023-03-17T20:50:06.366Z,81.29
2023-03-17T20:56:37.974Z,81.33
2023-03-17T20:59:42.597Z,81.69
2023-03-17T21:02:49.302Z,81.39
2023-03-17T21:05:57.233Z,81.79
2023-03-17T21:09:01.401Z,81.57
2023-03-17T21:12:04.587Z,81.63
2023-03-17T21:15:11.007Z,81.79
2023-03-17T21:18:19.112Z,82.24
2023-03-17T21:21:22.185Z,82.07
2023-03-17T21:24:36.434Z,82.35
2023-03-17T21:27:41.650Z,82.52
2023-03-17T21:30:57.135Z,82.71
2023-03-17T21:33:59.469Z,82.98
2023-03-17T21:37:04.777Z,83.04
2023-03-17T21:40:11.826Z,83.42
2023-03-17T21:43:18.744Z,83.18
2023-03-17T21:46:24.284Z,83.44
2023-03-17T21:49:25.925Z,83.54
2023-03-17T21:52:28.903Z,83.83
2023-03-17T21:55:36.093Z,84.09
2023-03-17T21:58:43.495Z,84.35
2023-03-17T22:01:57.004Z,84.51
2023-03-17T22:04:59.371Z,84.59
2023-03-17T22:08:01.171Z,85.02
2023-03-17T22:11:14.474Z,84.91
2023-03-17T22:14:20.807Z,85.44
2023-03-17T22:17:22.509Z,85.33
2023-03-17T22:20:24.356Z,85.91
2023-03-17T22:23:27.657Z,85.67
2023-03-17T22:26:29.261Z,85.70
2023-03-17T22:29:31.399Z,85.98
2023-03-17T22:32:33.446Z,86.17
2023-03-17T22:35:36.510Z,86.46
2023-03-17T22:38:40.890Z,86.96
2023-03-17T22:41:42.840Z,86.85
2023-03-17T22:44:45.475Z,87.45
2023-03-17T22:47:47.146Z,87.30
2023-03-17T22:50:48.765Z,87.44
2023-03-17T22:53:51.275Z,88.04
2023-03-17T22:56:52.910Z,88.10
2023-03-17T22:59:57.057Z,87.70
2023-03-17T23:02:58.663Z,87.72
2023-03-17T23:06:01.848Z,88.01
2023-03-17T23:09:04.783Z,88.39
2023-03-17T23:12:07.172Z,88.02
2023-03-17T23:15:11.043Z,88.10
2023-03-17T23:18:13.031Z,88.57
2023-03-17T23:21:27.758Z,88.50
2023-03-17T23:24:29.347Z,88.95
2023-03-17T23:27:31.010Z,89.22
2023-03-17T23:30:33.466Z,89.33
2023-03-17T23:33:35.318Z,89.19
2023-03-17T23:36:40.401Z,89.46
2023-03-17T23:39:42.074Z,89.32
2023-03-17T23:42:54.285Z,89.71
2023-03-17T23:45:55.943Z,89.87
2023-03-17T23:48:58.188Z,89.87
2023-03-17T23:51:59.752Z,89.88
2023-03-17T23:55:01.324Z,89.50
2023-03-17T23:58:03.374Z,89.49
